createdAt,value
2023-03-26T00:01:29.719Z,16.63
2023-03-26T00:03:57.502Z,15.73
2023-03-26T00:06:27.281Z,17.45
2023-03-26T00:08:55.548Z,22.05
2023-03-26T00:11:23.685Z,17.40
2023-03-26T00:13:53.557Z,20.10
2023-03-26T00:16:21.128Z,15.97
2023-03-26T00:18:48.938Z,20.05
2023-03-26T00:21:17.703Z,24.60
2023-03-26T00:23:44.851Z,31.52
2023-03-26T00:26:12.801Z,28.58
2023-03-26T00:28:41.415Z,25.30
2023-03-26T00:31:11.457Z,25.92
2023-03-26T00:33:40.904Z,31.67
2023-03-26T00:36:11.252Z,31.70
2023-03-26T00:38:39.201Z,29.88
2023-03-26T00:41:22.591Z,23.53
2023-03-26T00:43:52.154Z,40.67
2023-03-26T00:46:19.326Z,32.92
2023-03-26T00:48:46.577Z,37.75
2023-03-26T00:51:15.994Z,34.35
2023-03-26T00:53:44.538Z,48.03
2023-03-26T00:56:11.250Z,45.85
2023-03-26T00:58:38.732Z,36.60
2023-03-26T01:01:15.345Z,33.10
2023-03-26T01:04:00.923Z,42.97
2023-03-26T01:06:36.033Z,54.63
2023-03-26T01:09:13.485Z,46.40
2023-03-26T01:11:40.622Z,36.83
2023-03-26T01:14:11.711Z,45.95
2023-03-26T01:16:45.019Z,36.13
2023-03-26T01:19:26.183Z,38.83
2023-03-26T01:21:53.210Z,40.95
2023-03-26T01:24:19.948Z,38.40
2023-03-26T01:27:09.656Z,44.40
2023-03-26T01:29:55.677Z,43.75
2023-03-26T01:32:34.401Z,44.03
2023-03-26T01:35:26.405Z,40.17
2023-03-26T01:38:11.098Z,39.30
2023-03-26T01:40:46.887Z,47.58
2023-03-26T01:43:24.274Z,49.63
2023-03-26T01:45:52.635Z,43.07
2023-03-26T01:48:19.714Z,51.35
2023-03-26T01:50:46.526Z,40.28
2023-03-26T01:53:14.418Z,40.22
2023-03-26T01:55:59.287Z,41.78
2023-03-26T01:58:41.391Z,40.33
2023-03-26T02:01:30.126Z,40.42
2023-03-26T02:04:16.738Z,36.03
2023-03-26T02:07:02.032Z,46.65
2023-03-26T02:09:35.782Z,35.05
2023-03-26T02:12:04.390Z,47.60
2023-03-26T02:14:31.859Z,37.78
2023-03-26T02:17:00.053Z,44.08
2023-03-26T02:19:26.942Z,45.55
2023-03-26T02:21:59.909Z,47.42
2023-03-26T02:24:27.069Z,42.00
2023-03-26T02:26:53.822Z,45.13
2023-03-26T02:29:21.321Z,40.03
2023-03-26T02:31:48.555Z,48.45
2023-03-26T02:34:16.738Z,50.75
2023-03-26T02:36:43.565Z,40.77
2023-03-26T02:39:11.513Z,34.50
2023-03-26T02:41:39.135Z,35.00
2023-03-26T02:44:06.329Z,43.58
2023-03-26T02:46:33.923Z,40.13
2023-03-26T02:49:00.942Z,36.73
2023-03-26T02:51:28.808Z,41.03
2023-03-26T02:53:55.707Z,35.30
2023-03-26T02:56:22.586Z,39.53
2023-03-26T02:58:49.390Z,29.67
2023-03-26T03:01:18.335Z,43.53
2023-03-26T03:03:47.287Z,31.52
2023-03-26T03:06:17.096Z,40.65
2023-03-26T03:08:46.016Z,40.47
2023-03-26T03:11:18.342Z,41.55
2023-03-26T03:13:45.378Z,41.63
2023-03-26T03:16:12.243Z,32.33
2023-03-26T03:18:39.055Z,40.78
2023-03-26T03:21:06.226Z,36.83
2023-03-26T03:23:33.050Z,32.88
2023-03-26T03:25:59.846Z,38.17
2023-03-26T03:28:26.738Z,30.13
2023-03-26T03:30:53.559Z,35.03
2023-03-26T03:33:21.470Z,34.67
2023-03-26T03:35:49.562Z,36.20
2023-03-26T03:38:17.640Z,38.17
2023-03-26T03:40:44.613Z,32.47
2023-03-26T03:43:11.382Z,26.65
2023-03-26T03:45:38.110Z,31.10
2023-03-26T03:48:05.320Z,35.72
2023-03-26T03:50:34.398Z,31.67
2023-03-26T03:53:03.064Z,25.10
2023-03-26T03:55:29.945Z,29.27
2023-03-26T03:57:58.421Z,34.50
2023-03-26T04:00:25.456Z,35.25
2023-03-26T04:02:54.515Z,27.53
2023-03-26T04:05:21.637Z,27.20
2023-03-26T04:07:48.484Z,36.00
2023-03-26T04:10:16.068Z,31.88
2023-03-26T04:12:42.920Z,26.27
2023-03-26T04:15:10.152Z,33.77
2023-03-26T04:17:42.755Z,30.42
2023-03-26T04:20:16.263Z,33.28
2023-03-26T04:22:43.609Z,33.80
2023-03-26T04:25:12.925Z,30.73
2023-03-26T04:27:41.704Z,30.37
2023-03-26T04:30:14.690Z,30.23
2023-03-26T04:32:42.932Z,30.45
2023-03-26T04:35:14.263Z,25.25
2023-03-26T04:37:44.253Z,30.02
2023-03-26T04:40:17.178Z,30.90
2023-03-26T04:42:46.789Z,30.00
2023-03-26T04:45:23.032Z,24.83
2023-03-26T04:47:50.673Z,27.15
2023-03-26T04:50:17.839Z,26.40
2023-03-26T04:52:45.445Z,33.27
2023-03-26T04:55:29.034Z,22.80
2023-03-26T04:57:59.738Z,25.90
2023-03-26T05:00:27.805Z,29.25
2023-03-26T05:02:56.287Z,25.98
2023-03-26T05:05:24.010Z,28.57
2023-03-26T05:07:50.765Z,22.10
2023-03-26T05:10:20.199Z,35.33
2023-03-26T05:12:47.254Z,30.40
2023-03-26T05:15:15.313Z,19.95
2023-03-26T05:17:42.885Z,30.33
2023-03-26T05:20:23.308Z,25.45
2023-03-26T05:22:50.742Z,27.90
2023-03-26T05:25:18.375Z,26.02
2023-03-26T05:27:45.901Z,31.80
2023-03-26T05:30:16.322Z,30.53
2023-03-26T05:32:43.516Z,36.50
2023-03-26T05:35:10.492Z,37.75
2023-03-26T05:37:38.826Z,30.80
2023-03-26T05:40:11.483Z,30.08
2023-03-26T05:42:39.219Z,31.23
2023-03-26T05:45:08.464Z,35.92
2023-03-26T05:47:35.455Z,36.95
2023-03-26T05:50:02.332Z,30.58
2023-03-26T05:52:29.136Z,40.55
2023-03-26T05:54:56.823Z,35.83
2023-03-26T05:57:23.988Z,32.55
2023-03-26T05:59:50.886Z,29.08
2023-03-26T06:02:17.666Z,36.55
2023-03-26T06:04:46.008Z,38.67
2023-03-26T06:07:13.068Z,34.70
2023-03-26T06:09:40.889Z,33.55
2023-03-26T06:12:09.514Z,33.70
2023-03-26T06:14:37.026Z,28.02
2023-03-26T06:17:04.218Z,39.60
2023-03-26T06:19:30.942Z,37.83
2023-03-26T06:21:57.749Z,31.10
2023-03-26T06:24:24.581Z,25.83
2023-03-26T06:26:52.296Z,37.72
2023-03-26T06:29:19.290Z,33.88
2023-03-26T06:31:46.337Z,30.93
2023-03-26T06:34:13.218Z,37.95
2023-03-26T06:36:40.452Z,29.30
2023-03-26T06:39:07.770Z,31.98
2023-03-26T06:41:35.583Z,31.58
2023-03-26T06:44:03.382Z,29.35
2023-03-26T06:46:30.411Z,33.10
2023-03-26T06:48:57.168Z,33.72
2023-03-26T06:51:23.938Z,32.35
2023-03-26T06:53:50.672Z,33.92
2023-03-26T06:56:17.346Z,30.47
2023-03-26T06:58:44.278Z,34.35
2023-03-26T07:01:11.392Z,31.20
2023-03-26T07:03:38.388Z,33.50
2023-03-26T07:06:05.457Z,30.27
2023-03-26T07:08:32.245Z,26.63
2023-03-26T07:10:59.003Z,23.58
2023-03-26T07:13:26.096Z,34.42
2023-03-26T07:15:52.785Z,28.20
2023-03-26T07:18:19.498Z,33.03
2023-03-26T07:20:51.190Z,26.97
2023-03-26T07:23:20.562Z,32.28
2023-03-26T07:25:48.542Z,22.45
2023-03-26T07:28:32.389Z,22.83
2023-03-26T07:31:05.055Z,23.88
2023-03-26T07:33:46.914Z,24.40
2023-03-26T07:36:34.083Z,33.40
2023-03-26T07:39:19.602Z,25.05
2023-03-26T07:41:54.561Z,20.95
2023-03-26T07:44:41.866Z,28.17
2023-03-26T07:47:35.994Z,22.47
2023-03-26T07:50:03.542Z,21.83
2023-03-26T07:52:30.681Z,26.05
2023-03-26T07:54:57.907Z,23.38
2023-03-26T07:57:59.473Z,25.10
2023-03-26T08:00:45.968Z,33.27
2023-03-26T08:03:53.538Z,24.23
2023-03-26T08:06:28.118Z,26.15
2023-03-26T08:09:22.810Z,30.35
2023-03-26T08:12:05.989Z,32.33
2023-03-26T08:14:47.362Z,26.37
2023-03-26T08:17:23.725Z,34.20
2023-03-26T08:20:07.288Z,34.47
2023-03-26T08:22:50.797Z,30.85
2023-03-26T08:25:34.789Z,30.77
2023-03-26T08:28:08.462Z,32.27
2023-03-26T08:30:35.845Z,28.02
2023-03-26T08:33:11.289Z,32.03
2023-03-26T08:35:44.574Z,31.98
2023-03-26T08:38:13.595Z,31.25
2023-03-26T08:40:55.473Z,30.33
2023-03-26T08:43:31.030Z,25.75
2023-03-26T08:46:31.536Z,34.00
2023-03-26T08:49:07.099Z,33.03
2023-03-26T08:52:02.961Z,28.92
2023-03-26T08:54:56.854Z,26.73
2023-03-26T08:57:50.509Z,32.38
2023-03-26T09:00:34.766Z,28.55
2023-03-26T09:03:39.007Z,23.42
2023-03-26T09:06:43.641Z,24.73
2023-03-26T09:09:32.031Z,25.73
2023-03-26T09:12:44.018Z,31.00
2023-03-26T09:15:48.679Z,26.67
2023-03-26T09:18:34.034Z,30.65
2023-03-26T09:21:00.841Z,30.20
2023-03-26T09:23:46.153Z,24.73
2023-03-26T09:26:34.892Z,27.45
2023-03-26T09:29:32.834Z,13.90
2023-03-26T09:32:22.051Z,8.80
2023-03-26T09:35:18.887Z,9.70
2023-03-26T09:37:58.952Z,14.30
2023-03-26T09:40:47.561Z,7.03
2023-03-26T09:43:39.603Z,14.55
2023-03-26T09:46:22.150Z,14.18
2023-03-26T09:48:49.165Z,10.88
2023-03-26T09:51:43.992Z,20.20
2023-03-26T09:54:32.168Z,15.80
2023-03-26T09:57:07.972Z,15.30
2023-03-26T09:59:40.659Z,24.15
2023-03-26T10:02:51.092Z,17.45
2023-03-26T10:05:28.129Z,20.80
2023-03-26T10:08:25.514Z,19.02
2023-03-26T10:11:17.116Z,12.80
2023-03-26T10:13:51.528Z,16.85
2023-03-26T10:16:31.389Z,16.92
2023-03-26T10:19:07.882Z,15.57
2023-03-26T10:21:50.511Z,11.30
2023-03-26T10:24:32.781Z,17.20
2023-03-26T10:27:18.499Z,18.95
2023-03-26T10:30:04.073Z,14.23
2023-03-26T10:32:38.043Z,18.40
2023-03-26T10:35:25.312Z,10.32
2023-03-26T10:38:09.371Z,16.98
2023-03-26T10:41:04.472Z,15.35
2023-03-26T10:44:08.009Z,15.25
2023-03-26T10:46:58.651Z,11.13
2023-03-26T10:50:01.271Z,14.43
2023-03-26T10:52:37.759Z,11.00
2023-03-26T10:55:13.449Z,7.63
2023-03-26T10:57:42.892Z,8.40
2023-03-26T11:00:25.638Z,9.03
2023-03-26T11:03:12.930Z,13.98
2023-03-26T11:06:01.890Z,11.00
2023-03-26T11:08:35.409Z,11.25
2023-03-26T11:11:47.266Z,10.27
2023-03-26T11:14:27.862Z,11.13
2023-03-26T11:17:14.890Z,14.32
2023-03-26T11:20:02.758Z,11.63
2023-03-26T11:22:46.689Z,10.45
2023-03-26T11:25:45.617Z,12.77
2023-03-26T11:28:49.669Z,17.07
2023-03-26T11:31:42.786Z,8.40
2023-03-26T11:34:20.341Z,11.82
2023-03-26T11:36:52.725Z,14.98
2023-03-26T11:39:44.210Z,9.02
2023-03-26T11:42:14.503Z,12.20
2023-03-26T11:44:55.801Z,45.75
2023-03-26T11:47:30.945Z,14.48
2023-03-26T11:50:00.250Z,15.63
2023-03-26T11:52:27.927Z,12.95
2023-03-26T11:54:58.479Z,11.73
2023-03-26T11:57:36.226Z,17.23
2023-03-26T12:00:17.948Z,12.63
2023-03-26T12:02:46.909Z,12.07
2023-03-26T12:05:15.592Z,13.73
2023-03-26T12:07:49.604Z,12.20
2023-03-26T12:10:33.397Z,10.55
2023-03-26T12:13:03.025Z,12.82
2023-03-26T12:15:32.019Z,13.05
2023-03-26T12:18:20.817Z,14.75
2023-03-26T12:20:48.248Z,10.10
2023-03-26T12:23:38.922Z,14.45
2023-03-26T12:26:18.220Z,11.27
2023-03-26T12:28:47.681Z,5.13
2023-03-26T12:31:19.333Z,8.90
2023-03-26T12:34:06.324Z,8.87
2023-03-26T12:36:36.085Z,15.02
2023-03-26T12:40:07.883Z,3.22
2023-03-26T12:44:44.404Z,8.75
2023-03-26T12:45:40.751Z,13.82
2023-03-26T12:48:12.943Z,15.33
2023-03-26T12:51:05.135Z,8.30
2023-03-26T12:53:35.056Z,7.47
2023-03-26T12:56:06.977Z,15.10
2023-03-26T12:58:41.070Z,11.23
2023-03-26T13:01:34.667Z,10.27
2023-03-26T13:04:28.751Z,13.20
2023-03-26T13:07:04.539Z,17.00
2023-03-26T13:09:39.551Z,18.58
2023-03-26T13:12:10.268Z,9.48
2023-03-26T13:15:22.570Z,6.33
2023-03-26T13:18:17.001Z,8.27
2023-03-26T13:20:52.752Z,11.52
2023-03-26T13:23:33.738Z,5.85
2023-03-26T13:26:06.350Z,7.45
2023-03-26T13:28:53.400Z,6.17
2023-03-26T13:31:51.341Z,6.78
2023-03-26T13:34:36.314Z,7.00
2023-03-26T13:37:20.553Z,4.07
2023-03-26T13:40:11.395Z,5.90
2023-03-26T13:42:55.508Z,10.73
2023-03-26T13:45:54.385Z,4.13
2023-03-26T13:48:43.070Z,6.82
2023-03-26T13:51:17.819Z,3.22
2023-03-26T13:53:56.802Z,4.28
2023-03-26T13:56:32.050Z,8.33
2023-03-26T13:59:08.782Z,5.65
2023-03-26T14:01:45.484Z,4.15
2023-03-26T14:04:24.470Z,3.95
2023-03-26T14:07:19.020Z,3.65
2023-03-26T14:09:51.642Z,6.67
2023-03-26T14:12:24.418Z,9.73
2023-03-26T14:15:00.284Z,7.50
2023-03-26T14:17:31.258Z,6.28
2023-03-26T14:20:23.782Z,7.65
2023-03-26T14:22:56.294Z,2.57
2023-03-26T14:25:56.587Z,5.28
2023-03-26T14:28:29.473Z,4.10
2023-03-26T14:31:19.497Z,5.25
2023-03-26T14:34:07.157Z,6.55
2023-03-26T14:36:52.967Z,2.97
2023-03-26T14:39:50.544Z,4.70
2023-03-26T14:42:55.201Z,5.47
2023-03-26T14:45:31.980Z,10.70
2023-03-26T14:48:01.813Z,6.88
2023-03-26T14:50:57.554Z,7.70
2023-03-26T14:53:33.668Z,5.75
2023-03-26T14:56:36.378Z,5.45
2023-03-26T14:59:41.112Z,5.70
2023-03-26T15:02:59.216Z,4.63
2023-03-26T15:05:44.501Z,6.87
2023-03-26T15:08:33.710Z,6.07
2023-03-26T15:11:25.541Z,11.23
2023-03-26T15:14:29.215Z,3.10
2023-03-26T15:17:13.912Z,2.50
2023-03-26T15:20:03.380Z,3.30
2023-03-26T15:23:18.547Z,8.32
2023-03-26T15:26:19.554Z,4.68
2023-03-26T15:29:36.992Z,3.85
2023-03-26T15:32:33.444Z,3.55
2023-03-26T15:35:18.447Z,9.07
2023-03-26T15:38:08.273Z,5.30
2023-03-26T15:40:43.909Z,6.05
2023-03-26T15:43:13.599Z,3.58
2023-03-26T15:46:12.097Z,2.35
2023-03-26T15:49:03.704Z,3.77
2023-03-26T15:51:53.621Z,2.20
2023-03-26T15:54:39.483Z,5.88
2023-03-26T15:57:31.420Z,4.00
2023-03-26T15:59:59.194Z,3.15
2023-03-26T16:02:45.041Z,5.70
2023-03-26T16:05:31.122Z,3.55
2023-03-26T16:08:16.651Z,4.90
2023-03-26T16:10:58.501Z,1.92
2023-03-26T16:13:37.587Z,6.28
2023-03-26T16:16:04.344Z,2.57
2023-03-26T16:18:38.148Z,7.82
2023-03-26T16:21:34.518Z,10.77
2023-03-26T16:24:07.285Z,19.75
2023-03-26T16:26:59.393Z,50.03
2023-03-26T16:29:28.758Z,11.87
2023-03-26T16:32:07.769Z,4.97
2023-03-26T16:34:53.915Z,8.85
2023-03-26T16:37:37.080Z,7.30
2023-03-26T16:40:22.429Z,3.05
2023-03-26T16:43:10.842Z,6.80
2023-03-26T16:46:08.702Z,6.25
2023-03-26T16:48:46.431Z,5.20
2023-03-26T16:51:32.236Z,5.53
2023-03-26T16:54:24.241Z,5.32
2023-03-26T16:57:28.894Z,4.47
2023-03-26T17:00:57.947Z,2.42
2023-03-26T17:03:37.718Z,3.15
2023-03-26T17:06:25.372Z,5.95
2023-03-26T17:09:04.217Z,3.85
2023-03-26T17:11:38.415Z,1.87
2023-03-26T17:14:21.946Z,3.47
2023-03-26T17:17:06.605Z,3.22
2023-03-26T17:19:44.401Z,7.25
2023-03-26T17:22:15.328Z,3.80
2023-03-26T17:24:57.973Z,4.97
2023-03-26T17:27:36.761Z,3.78
2023-03-26T17:30:41.014Z,4.07
2023-03-26T17:33:26.837Z,2.70
2023-03-26T17:36:43.302Z,4.70
2023-03-26T17:39:22.367Z,9.43
2023-03-26T17:41:52.572Z,7.00
2023-03-26T17:44:55.779Z,2.17
2023-03-26T17:47:45.284Z,3.75
2023-03-26T17:50:17.149Z,6.90
2023-03-26T17:53:04.707Z,3.50
2023-03-26T17:55:34.964Z,3.95
2023-03-26T17:58:04.873Z,4.82
2023-03-26T18:00:36.014Z,6.70
2023-03-26T18:03:18.603Z,6.93
2023-03-26T18:05:47.147Z,2.37
2023-03-26T18:08:52.777Z,5.05
2023-03-26T18:11:19.644Z,8.48
2023-03-26T18:14:20.509Z,3.58
2023-03-26T18:16:53.801Z,4.38
2023-03-26T18:19:23.140Z,2.93
2023-03-26T18:21:52.757Z,4.18
2023-03-26T18:24:32.516Z,4.05
2023-03-26T18:27:11.505Z,4.40
2023-03-26T18:29:46.846Z,3.33
2023-03-26T18:32:13.597Z,2.97
2023-03-26T18:34:50.105Z,7.90
2023-03-26T18:37:23.968Z,3.53
2023-03-26T18:40:11.705Z,4.65
2023-03-26T18:42:51.465Z,9.07
2023-03-26T18:45:36.371Z,3.73
2023-03-26T18:48:19.199Z,6.50
2023-03-26T18:50:48.451Z,6.38
2023-03-26T18:53:21.353Z,9.02
2023-03-26T18:55:50.639Z,7.30
2023-03-26T18:58:34.381Z,9.37
2023-03-26T19:01:04.625Z,5.78
2023-03-26T19:03:35.698Z,2.83
2023-03-26T19:06:04.716Z,5.85
2023-03-26T19:08:32.895Z,4.38
2023-03-26T19:11:04.381Z,3.43
2023-03-26T19:13:32.838Z,4.60
2023-03-26T19:16:07.534Z,7.07
2023-03-26T19:18:38.514Z,7.20
2023-03-26T19:21:11.151Z,7.45
2023-03-26T19:23:41.225Z,8.63
2023-03-26T19:26:10.596Z,2.90
2023-03-26T19:28:41.787Z,6.03
2023-03-26T19:31:14.909Z,4.35
2023-03-26T19:33:43.712Z,6.90
2023-03-26T19:36:13.560Z,3.23
2023-03-26T19:38:44.542Z,3.97
2023-03-26T19:41:23.763Z,5.28
2023-03-26T19:43:55.762Z,5.65
2023-03-26T19:46:23.397Z,5.95
2023-03-26T19:48:54.152Z,4.20
2023-03-26T19:51:35.752Z,3.97
2023-03-26T19:54:15.967Z,6.57
2023-03-26T19:56:43.629Z,6.40
2023-03-26T19:59:10.451Z,8.82
2023-03-26T20:01:37.458Z,7.03
2023-03-26T20:04:06.603Z,4.97
2023-03-26T20:06:43.373Z,4.88
2023-03-26T20:09:12.617Z,2.95
2023-03-26T20:11:40.783Z,5.38
2023-03-26T20:14:14.457Z,5.27
2023-03-26T20:16:43.108Z,7.32
2023-03-26T20:19:11.541Z,5.13
2023-03-26T20:21:38.339Z,2.72
2023-03-26T20:24:16.602Z,4.10
2023-03-26T20:26:48.020Z,6.70
2023-03-26T20:29:15.238Z,3.15
2023-03-26T20:31:43.367Z,5.63
2023-03-26T20:34:23.372Z,4.65
2023-03-26T20:36:56.069Z,3.85
2023-03-26T20:39:26.261Z,3.47
2023-03-26T20:41:54.724Z,3.40
2023-03-26T20:44:22.519Z,5.97
2023-03-26T20:46:50.393Z,4.72
2023-03-26T20:49:18.366Z,3.53
2023-03-26T20:51:46.809Z,3.00
2023-03-26T20:54:25.242Z,3.45
2023-03-26T20:56:54.165Z,10.88
2023-03-26T20:59:27.720Z,4.85
2023-03-26T21:01:57.526Z,5.80
2023-03-26T21:04:26.263Z,6.20
2023-03-26T21:06:57.561Z,6.60
2023-03-26T21:09:35.180Z,7.43
2023-03-26T21:12:06.121Z,8.15
2023-03-26T21:14:40.982Z,5.35
2023-03-26T21:17:20.611Z,6.77
2023-03-26T21:19:48.088Z,2.97
2023-03-26T21:22:36.970Z,6.00
2023-03-26T21:25:19.706Z,2.72
2023-03-26T21:28:19.443Z,6.55
2023-03-26T21:30:48.389Z,7.90
2023-03-26T21:33:15.100Z,10.43
2023-03-26T21:35:42.365Z,2.85
2023-03-26T21:38:10.691Z,6.38
2023-03-26T21:40:40.519Z,5.45
2023-03-26T21:43:11.822Z,3.40
2023-03-26T21:45:39.388Z,5.35
2023-03-26T21:48:06.575Z,6.95
2023-03-26T21:50:33.668Z,8.70
2023-03-26T21:53:01.672Z,7.40
2023-03-26T21:55:28.705Z,6.97
2023-03-26T21:58:04.535Z,5.65
2023-03-26T22:00:55.822Z,3.55
2023-03-26T22:03:32.998Z,7.57
2023-03-26T22:06:11.382Z,7.65
2023-03-26T22:08:40.618Z,6.83
2023-03-26T22:11:10.108Z,6.78
2023-03-26T22:13:38.602Z,7.53
2023-03-26T22:16:07.160Z,5.18
2023-03-26T22:18:33.965Z,4.53
2023-03-26T22:21:01.096Z,7.30
2023-03-26T22:23:36.648Z,8.60
2023-03-26T22:26:04.995Z,6.55
2023-03-26T22:28:32.152Z,8.60
2023-03-26T22:30:59.537Z,7.10
2023-03-26T22:33:26.747Z,3.30
2023-03-26T22:35:55.841Z,10.50
2023-03-26T22:38:23.027Z,5.63
2023-03-26T22:40:57.142Z,10.18
2023-03-26T22:43:24.160Z,7.78
2023-03-26T22:45:51.336Z,6.13
2023-03-26T22:48:18.310Z,5.40
2023-03-26T22:50:45.040Z,7.53
2023-03-26T22:53:12.022Z,4.38
2023-03-26T22:55:38.759Z,6.93
2023-03-26T22:58:05.427Z,4.50
2023-03-26T23:00:32.375Z,5.30
2023-03-26T23:03:00.610Z,6.47
2023-03-26T23:05:28.464Z,5.38
2023-03-26T23:07:55.906Z,7.00
2023-03-26T23:10:22.717Z,4.03
2023-03-26T23:12:49.634Z,7.00
2023-03-26T23:15:16.638Z,7.30
2023-03-26T23:17:43.389Z,9.15
2023-03-26T23:20:15.388Z,5.70
2023-03-26T23:22:43.067Z,5.87
2023-03-26T23:25:11.318Z,7.32
2023-03-26T23:27:40.025Z,8.07
2023-03-26T23:30:07.490Z,5.85
2023-03-26T23:32:38.246Z,12.52
2023-03-26T23:35:06.024Z,6.63
2023-03-26T23:37:35.093Z,5.63
2023-03-26T23:40:06.494Z,5.63
2023-03-26T23:42:34.568Z,7.28
2023-03-26T23:45:02.113Z,4.03
2023-03-26T23:47:34.290Z,5.90
2023-03-26T23:50:05.177Z,2.95
2023-03-26T23:52:31.940Z,5.90
2023-03-26T23:55:00.022Z,8.65
2023-03-26T23:57:27.354Z,5.20
2023-03-26T23:59:54.726Z,2.03
